Time;durP1;ratioP1;P1;durP2;ratioP2;P2;SDS_P1;SDS_P2;PMS_P1;PMS_P2;Temp;Humidity;BMP_temperature;BMP_pressure;BME280_temperature;BME280_humidity;BME280_pressure;Samples;Min_cycle;Max_cycle;Signal;HPM_P1;HPM_P2
2024/03/08 00:00:13;;;;;;;;;;;;;;;18.22;60.75;101290.13;7392730;19;1864;-41
2024/03/08 00:02:41;;;;;;;;;;;;;;;18.21;60.89;101304.47;7394471;19;1436;-41
2024/03/08 00:05:11;;;;;;;;;;;;;;;18.14;61.04;101295.19;7394493;19;1560;-41
2024/03/08 00:07:42;;;;;;;;;;;;;;;18.18;60.95;101307.34;7379708;19;1223;-41
2024/03/08 00:10:12;;;;;;;;;;;;;;;18.12;60.94;101286.41;7393247;19;1125;-41
2024/03/08 00:12:41;;;;;;;;;;;;;;;18.15;61.15;101296.06;7394703;19;1488;-41
2024/03/08 00:15:10;;;;;;;;;;;;;;;18.12;61.04;101278.38;7393043;19;1509;-41
2024/03/08 00:17:39;;;;;;;;;;;;;;;18.14;61.06;101278.28;7392560;19;1562;-42
2024/03/08 00:20:08;;;;;;;;;;;;;;;18.18;60.90;101269.88;7390889;19;1867;-41
2024/03/08 00:22:36;;;;;;;;;;;;;;;18.25;60.81;101271.13;7392971;19;1091;-41
2024/03/08 00:25:08;;;;;;;;;;;;;;;18.11;61.11;101267.81;7392133;19;1593;-42
2024/03/08 00:27:37;;;;;;;;;;;;;;;18.10;60.95;101256.25;7391765;19;1543;-42
2024/03/08 00:30:05;;;;;;;;;;;;;;;18.18;61.13;101255.66;7392780;19;1097;-41
2024/03/08 00:32:34;;;;;;;;;;;;;;;18.13;61.37;101261.38;7390884;19;1473;-42
2024/03/08 00:35:03;;;;;;;;;;;;;;;18.15;61.22;101270.13;7392072;19;1547;-42
2024/03/08 00:37:31;;;;;;;;;;;;;;;18.12;61.26;101259.66;7392390;19;1817;-42
2024/03/08 00:40:00;;;;;;;;;;;;;;;18.14;61.35;101273.78;7391501;19;1853;-41
2024/03/08 00:42:33;;;;;;;;;;;;;;;18.11;61.30;101268.66;7391562;19;1139;-41
2024/03/08 00:45:01;;;;;;;;;;;;;;;18.01;61.13;101273.88;7390786;19;1149;-42
2024/03/08 00:47:29;;;;;;;;;;;;;;;18.06;61.60;101273.50;7391751;19;1571;-42
2024/03/08 00:49:58;;;;;;;;;;;;;;;17.84;61.78;101234.16;7391311;19;1563;-42
2024/03/08 00:52:26;;;;;;;;;;;;;;;18.14;61.45;101278.28;7392355;19;1211;-42
2024/03/08 00:54:55;;;;;;;;;;;;;;;18.20;61.37;101281.31;7391645;19;1157;-42
2024/03/08 00:57:24;;;;;;;;;;;;;;;18.02;61.61;101278.22;7390803;19;1112;-42
2024/03/08 00:59:54;;;;;;;;;;;;;;;17.95;62.26;101263.63;7389074;19;1511;-41
2024/03/08 01:02:25;;;;;;;;;;;;;;;18.21;61.63;101271.50;7390769;19;1528;-42
2024/03/08 01:04:53;;;;;;;;;;;;;;;18.53;60.96;101282.38;7390493;19;1245;-42
2024/03/08 01:07:21;;;;;;;;;;;;;;;18.51;60.72;101264.72;7375374;19;1393;-41
2024/03/08 01:09:49;;;;;;;;;;;;;;;18.37;60.96;101305.97;7388009;19;1203;-42
2024/03/08 01:12:18;;;;;;;;;;;;;;;18.27;61.34;101271.88;7390588;19;1606;-42
2024/03/08 01:14:46;;;;;;;;;;;;;;;18.29;61.37;101271.75;7391206;19;1606;-42
2024/03/08 01:17:17;;;;;;;;;;;;;;;18.24;61.30;101264.09;7390513;19;1413;-41
2024/03/08 01:19:47;;;;;;;;;;;;;;;18.15;61.66;101259.44;7390712;19;1405;-42
2024/03/08 01:22:15;;;;;;;;;;;;;;;18.11;61.69;101266.00;7388587;19;1851;-41
2024/03/08 01:24:43;;;;;;;;;;;;;;;18.17;61.81;101273.53;7389431;19;1341;-42
2024/03/08 01:27:12;;;;;;;;;;;;;;;18.14;61.81;101267.56;7390664;19;1101;-42
2024/03/08 01:29:40;;;;;;;;;;;;;;;18.14;61.67;101265.75;7390492;19;1206;-42
2024/03/08 01:32:09;;;;;;;;;;;;;;;18.11;61.72;101257.97;7390407;19;997;-41
2024/03/08 01:34:39;;;;;;;;;;;;;;;18.14;61.79;101268.41;7389236;19;1501;-42
2024/03/08 01:37:10;;;;;;;;;;;;;;;18.06;61.95;101260.13;7390106;19;1554;-42
2024/03/08 01:39:38;;;;;;;;;;;;;;;18.07;61.88;101283.25;7388896;19;1160;-42
2024/03/08 01:42:07;;;;;;;;;;;;;;;18.06;61.79;101276.19;7387569;19;1870;-41
2024/03/08 01:44:35;;;;;;;;;;;;;;;18.07;61.73;101267.19;7388706;19;1191;-42
2024/03/08 01:47:04;;;;;;;;;;;;;;;18.01;61.78;101268.50;7389573;19;1214;-42
2024/03/08 01:49:33;;;;;;;;;;;;;;;18.07;61.85;101288.59;7389681;19;1057;-42
2024/03/08 01:52:04;;;;;;;;;;;;;;;18.05;61.65;101280.69;7389577;19;1171;-42
2024/03/08 01:54:33;;;;;;;;;;;;;;;18.07;61.67;101285.94;7389326;19;1548;-42
2024/03/08 01:57:01;;;;;;;;;;;;;;;18.08;61.59;101276.91;7389070;19;1427;-45
2024/03/08 01:59:30;;;;;;;;;;;;;;;18.06;61.44;101282.41;7388677;19;1567;-42
2024/03/08 02:02:02;;;;;;;;;;;;;;;17.98;61.93;101279.44;7386935;19;1849;-42
2024/03/08 02:04:31;;;;;;;;;;;;;;;18.00;61.79;101282.84;7386900;19;2576;-42
2024/03/08 02:07:00;;;;;;;;;;;;;;;18.55;60.73;101283.09;7374407;19;1199;-42
2024/03/08 02:09:34;;;;;;;;;;;;;;;19.17;59.16;101278.25;7388584;19;1203;-42
2024/03/08 02:12:02;;;;;;;;;;;;;;;19.64;58.01;101273.53;7387824;19;1207;-42
2024/03/08 02:14:31;;;;;;;;;;;;;;;19.83;57.62;101279.06;7388105;19;1160;-41
2024/03/08 02:17:02;;;;;;;;;;;;;;;19.99;57.22;101280.47;7389923;19;1068;-41
2024/03/08 02:19:32;;;;;;;;;;;;;;;20.07;56.97;101278.00;7387672;19;1073;-41
2024/03/08 02:22:04;;;;;;;;;;;;;;;20.09;57.09;101280.53;7386906;19;1877;-41
2024/03/08 02:24:32;;;;;;;;;;;;;;;20.12;57.10;101265.03;7386070;19;1180;-41
2024/03/08 02:27:01;;;;;;;;;;;;;;;20.11;57.06;101267.84;7387588;19;1546;-41
2024/03/08 02:29:29;;;;;;;;;;;;;;;20.12;57.13;101275.78;7388214;19;1542;-41
2024/03/08 02:31:57;;;;;;;;;;;;;;;20.14;57.05;101268.44;7387669;19;1582;-41
2024/03/08 02:34:26;;;;;;;;;;;;;;;20.16;57.09;101271.84;7387735;19;1453;-41
2024/03/08 02:36:56;;;;;;;;;;;;;;;20.13;57.01;101274.78;7388784;19;1077;-41
2024/03/08 02:39:28;;;;;;;;;;;;;;;20.20;56.85;101262.53;7387508;19;1914;-41
2024/03/08 02:41:56;;;;;;;;;;;;;;;20.31;56.70;101274.19;7386040;19;1845;-42
2024/03/08 02:44:25;;;;;;;;;;;;;;;20.30;56.79;101273.34;7387110;19;1277;-42
2024/03/08 02:46:54;;;;;;;;;;;;;;;20.39;56.63;101279.75;7388051;19;1323;-42
2024/03/08 02:49:23;;;;;;;;;;;;;;;20.35;56.68;101275.63;7387900;19;1184;-42
2024/03/08 02:51:51;;;;;;;;;;;;;;;20.43;56.63;101276.69;7387364;19;1435;-42
2024/03/08 02:54:20;;;;;;;;;;;;;;;20.44;56.43;101277.53;7387136;19;1144;-42
2024/03/08 02:56:52;;;;;;;;;;;;;;;20.39;56.61;101272.56;7387366;19;1496;-42
2024/03/08 02:59:18;;;;;;;;;;;;;;;20.42;56.51;101280.34;7387644;19;1646;-42
2024/03/08 03:01:47;;;;;;;;;;;;;;;20.46;56.45;101275.56;7385971;19;1861;-42
2024/03/08 03:04:15;;;;;;;;;;;;;;;20.49;56.62;101283.34;7387100;19;1228;-42
2024/03/08 03:06:43;;;;;;;;;;;;;;;20.26;56.33;101219.03;7377320;19;1762;-42
2024/03/08 03:09:16;;;;;;;;;;;;;;;20.59;56.39;101283.44;7386667;19;1527;-44
2024/03/08 03:11:47;;;;;;;;;;;;;;;20.56;56.19;101268.41;7385836;19;2393;-42
2024/03/08 03:14:18;;;;;;;;;;;;;;;20.63;56.24;101269.63;7386857;19;1433;-42
2024/03/08 03:16:47;;;;;;;;;;;;;;;20.70;56.08;101279.81;7387572;19;1128;-42
2024/03/08 03:19:15;;;;;;;;;;;;;;;20.64;56.06;101287.44;7386545;19;1586;-42
2024/03/08 03:21:45;;;;;;;;;;;;;;;20.67;56.09;101286.31;7385960;19;1845;-42
2024/03/08 03:24:16;;;;;;;;;;;;;;;20.72;56.10;101267.09;7385408;19;1550;-42
2024/03/08 03:26:45;;;;;;;;;;;;;;;20.67;56.07;101270.19;7386704;19;1540;-42
2024/03/08 03:29:15;;;;;;;;;;;;;;;20.71;55.86;101265.38;7386551;19;1499;-42
2024/03/08 03:31:47;;;;;;;;;;;;;;;20.68;56.24;101279.94;7386063;19;1369;-42
2024/03/08 03:34:15;;;;;;;;;;;;;;;20.70;56.03;101274.44;7385164;19;1132;-42
2024/03/08 03:36:46;;;;;;;;;;;;;;;20.46;56.57;101276.41;7387071;19;1106;-42
2024/03/08 03:39:16;;;;;;;;;;;;;;;20.35;56.95;101283.69;7385632;19;1168;-42
2024/03/08 03:41:45;;;;;;;;;;;;;;;20.30;57.12;101288.63;7385733;19;1859;-42
2024/03/08 03:44:14;;;;;;;;;;;;;;;20.34;57.20;101295.44;7385306;19;1402;-42
2024/03/08 03:46:50;;;;;;;;;;;;;;;20.29;57.02;101279.69;7386744;19;1058;-42
2024/03/08 03:49:18;;;;;;;;;;;;;;;20.30;57.02;101283.25;7385911;19;1214;-42
2024/03/08 03:51:47;;;;;;;;;;;;;;;20.23;57.32;101289.16;7386288;19;1449;-42
2024/03/08 03:54:15;;;;;;;;;;;;;;;20.26;57.25;101288.88;7384778;19;1195;-42
2024/03/08 03:56:45;;;;;;;;;;;;;;;20.24;57.28;101300.72;7385647;19;1533;-42
2024/03/08 03:59:13;;;;;;;;;;;;;;;20.19;57.25;101298.44;7384842;19;1266;-42
2024/03/08 04:01:49;;;;;;;;;;;;;;;19.79;58.19;101303.63;7384695;19;1857;-42
2024/03/08 04:04:17;;;;;;;;;;;;;;;19.48;58.81;101298.09;7386281;19;1452;-42
2024/03/08 04:06:46;;;;;;;;;;;;;;;19.29;59.24;101317.50;7385180;19;1720;-41
2024/03/08 04:09:14;;;;;;;;;;;;;;;19.15;59.35;101301.66;7370809;19;1188;-42
2024/03/08 04:11:43;;;;;;;;;;;;;;;18.99;59.59;101312.75;7384909;19;1500;-42
2024/03/08 04:14:11;;;;;;;;;;;;;;;18.97;59.76;101307.53;7384028;19;1147;-42
2024/03/08 04:16:40;;;;;;;;;;;;;;;18.90;59.87;101309.00;7385708;19;1191;-42
2024/03/08 04:19:11;;;;;;;;;;;;;;;18.80;60.07;101306.19;7385071;19;1190;-42
2024/03/08 04:21:39;;;;;;;;;;;;;;;18.94;59.96;101322.97;7384206;19;1847;-42
2024/03/08 04:24:08;;;;;;;;;;;;;;;19.28;59.54;101313.13;7385777;19;1101;-42
2024/03/08 04:26:37;;;;;;;;;;;;;;;19.49;58.93;101297.09;7384133;19;1210;-42
2024/03/08 04:29:06;;;;;;;;;;;;;;;19.64;58.46;101292.31;7384666;19;1460;-42
2024/03/08 04:31:34;;;;;;;;;;;;;;;19.72;58.19;101299.75;7384879;19;1493;-42
2024/03/08 04:34:05;;;;;;;;;;;;;;;19.70;58.29;101307.91;7383642;19;1542;-42
2024/03/08 04:36:35;;;;;;;;;;;;;;;19.70;58.28;101310.56;7391501;19;1370;-42
2024/03/08 04:39:04;;;;;;;;;;;;;;;19.64;58.28;101298.50;7391178;19;1589;-42
2024/03/08 04:41:34;;;;;;;;;;;;;;;19.68;58.32;101304.50;7391773;19;1849;-42
2024/03/08 04:44:02;;;;;;;;;;;;;;;19.68;58.35;101304.50;7391190;19;1167;-42
2024/03/08 04:46:31;;;;;;;;;;;;;;;19.75;58.29;101305.69;7391478;19;1172;-42
2024/03/08 04:48:59;;;;;;;;;;;;;;;19.72;58.08;101305.13;7390853;19;1655;-42
2024/03/08 04:51:27;;;;;;;;;;;;;;;19.73;58.19;101310.34;7391288;19;1962;-41
2024/03/08 04:53:59;;;;;;;;;;;;;;;19.71;58.23;101308.75;7388001;19;1270;-42
2024/03/08 04:56:28;;;;;;;;;;;;;;;19.71;58.36;101319.47;7390910;19;1378;-42
2024/03/08 04:58:56;;;;;;;;;;;;;;;19.70;58.04;101318.63;7391454;19;1566;-42
2024/03/08 05:01:24;;;;;;;;;;;;;;;19.74;58.06;101328.16;7390232;19;1845;-42
2024/03/08 05:03:55;;;;;;;;;;;;;;;19.76;58.33;101320.00;7390529;19;1301;-42
2024/03/08 05:06:23;;;;;;;;;;;;;;;19.78;57.98;101337.66;7390561;19;1320;-42
2024/03/08 05:08:51;;;;;;;;;;;;;;;19.77;58.02;101333.25;7376953;19;1105;-42
2024/03/08 05:11:22;;;;;;;;;;;;;;;19.78;57.99;101326.09;7389583;19;2395;-42
2024/03/08 05:13:51;;;;;;;;;;;;;;;19.81;57.91;101336.53;7389689;19;1485;-42
2024/03/08 05:16:19;;;;;;;;;;;;;;;19.80;58.16;101334.84;7390960;19;1161;-42
2024/03/08 05:18:48;;;;;;;;;;;;;;;19.81;58.08;101340.06;7391314;19;1559;-42
2024/03/08 05:21:20;;;;;;;;;;;;;;;19.89;58.05;101343.97;7390551;19;1526;-42
2024/03/08 05:23:49;;;;;;;;;;;;;;;19.89;58.04;101352.84;7388561;19;1892;-42
2024/03/08 05:26:18;;;;;;;;;;;;;;;19.88;58.29;101337.75;7388669;19;1155;-42
2024/03/08 05:28:49;;;;;;;;;;;;;;;19.87;58.15;101341.41;7390987;19;1488;-41
2024/03/08 05:31:20;;;;;;;;;;;;;;;19.91;57.86;101358.09;7390213;19;1230;-42
2024/03/08 05:33:49;;;;;;;;;;;;;;;19.89;57.76;101360.06;7389853;19;1252;-42
2024/03/08 05:36:17;;;;;;;;;;;;;;;19.80;58.30;101359.84;7390291;19;1265;-42
2024/03/08 05:38:46;;;;;;;;;;;;;;;19.78;58.29;101363.66;7390187;19;1160;-42
2024/03/08 05:41:14;;;;;;;;;;;;;;;19.76;58.34;101365.63;7389589;19;1399;-42
2024/03/08 05:43:43;;;;;;;;;;;;;;;19.76;58.57;101361.09;7387123;19;1838;-42
2024/03/08 05:46:18;;;;;;;;;;;;;;;19.75;58.73;101367.41;7388111;19;1078;-42
2024/03/08 05:48:46;;;;;;;;;;;;;;;19.74;58.58;101379.16;7389981;19;1578;-41
2024/03/08 05:51:15;;;;;;;;;;;;;;;19.86;58.31;101378.13;7389054;19;1432;-42
2024/03/08 05:53:43;;;;;;;;;;;;;;;19.98;58.29;101380.78;7389166;19;1433;-42
2024/03/08 05:56:11;;;;;;;;;;;;;;;19.53;58.86;101391.59;7387936;19;1309;-42
2024/03/08 05:58:40;;;;;;;;;;;;;;;19.24;59.38;101392.09;7389062;19;1140;-41
2024/03/08 06:01:10;;;;;;;;;;;;;;;19.10;59.35;101392.31;7388933;19;1563;-41
2024/03/08 06:03:44;;;;;;;;;;;;;;;18.97;59.68;101393.28;7385308;19;1874;-42
2024/03/08 06:06:13;;;;;;;;;;;;;;;18.85;59.71;101396.94;7387057;19;1046;-42
2024/03/08 06:08:42;;;;;;;;;;;;;;;19.08;59.50;101395.97;7373257;19;1081;-42
2024/03/08 06:11:11;;;;;;;;;;;;;;;19.33;59.04;101395.88;7387523;19;1613;-43
2024/03/08 06:13:39;;;;;;;;;;;;;;;19.51;58.56;101407.78;7389578;19;1576;-42
2024/03/08 06:16:08;;;;;;;;;;;;;;;19.69;58.21;101402.78;7388706;19;1035;-42
2024/03/08 06:18:36;;;;;;;;;;;;;;;19.69;57.90;101397.41;7387257;19;1386;-41
2024/03/08 06:21:09;;;;;;;;;;;;;;;19.68;57.95;101403.75;7387655;19;1159;-42
2024/03/08 06:23:38;;;;;;;;;;;;;;;19.71;57.98;101400.84;7385545;19;1890;-42
2024/03/08 06:26:06;;;;;;;;;;;;;;;19.71;57.88;101422.31;7386782;19;1167;-42
2024/03/08 06:28:35;;;;;;;;;;;;;;;19.78;57.89;101423.53;7388417;19;1089;-42
2024/03/08 06:31:03;;;;;;;;;;;;;;;19.78;57.46;101428.06;7387509;19;1919;-42
2024/03/08 06:33:32;;;;;;;;;;;;;;;19.78;56.96;101423.53;7383725;19;1348;-42
2024/03/08 06:36:00;;;;;;;;;;;;;;;19.84;56.62;101414.97;7387701;19;1380;-42
2024/03/08 06:38:31;;;;;;;;;;;;;;;19.91;56.64;101418.00;7387379;19;1097;-42
2024/03/08 06:41:02;;;;;;;;;;;;;;;19.91;56.50;101414.47;7384094;19;1804;-43
2024/03/08 06:43:34;;;;;;;;;;;;;;;19.94;56.48;101419.59;7384894;19;1872;-42
2024/03/08 06:46:03;;;;;;;;;;;;;;;19.94;56.56;101416.94;7386031;19;1276;-42
2024/03/08 06:48:32;;;;;;;;;;;;;;;19.97;56.43;101417.50;7386146;19;1430;-42
2024/03/08 06:51:00;;;;;;;;;;;;;;;19.99;56.35;101426.28;7385914;19;1586;-42
2024/03/08 06:53:31;;;;;;;;;;;;;;;19.99;56.45;101420.06;7388884;19;1172;-42
2024/03/08 06:56:00;;;;;;;;;;;;;;;20.02;56.28;101425.19;7388791;19;1188;-42
2024/03/08 06:58:28;;;;;;;;;;;;;;;20.03;56.42;101432.25;7388056;19;1425;-42
2024/03/08 07:00:58;;;;;;;;;;;;;;;20.01;56.36;101418.09;7389290;19;1117;-42
2024/03/08 07:03:27;;;;;;;;;;;;;;;20.01;56.28;101434.22;7388921;19;1841;-42
2024/03/08 07:05:56;;;;;;;;;;;;;;;20.01;56.27;101435.06;7388853;19;1559;-41
2024/03/08 07:08:24;;;;;;;;;;;;;;;20.10;56.23;101425.41;7371727;19;1465;-41
2024/03/08 07:10:57;;;;;;;;;;;;;;;20.12;56.00;101430.66;7388729;19;1120;-42
2024/03/08 07:13:25;;;;;;;;;;;;;;;20.13;55.84;101426.97;7389282;19;1282;-42
2024/03/08 07:15:55;;;;;;;;;;;;;;;20.15;55.92;101441.13;7388412;19;1151;-42
2024/03/08 07:18:23;;;;;;;;;;;;;;;20.17;55.89;101445.38;7388322;19;1513;-42
2024/03/08 07:20:53;;;;;;;;;;;;;;;19.90;56.46;101442.31;7386235;19;1433;-42
2024/03/08 07:26:04;;;;;;;;;;;;;;;19.27;58.03;101440.09;7385813;19;1629;-42
2024/03/08 07:28:33;;;;;;;;;;;;;;;19.17;58.06;101447.16;7388190;19;1493;-42
2024/03/08 07:33:47;;;;;;;;;;;;;;;19.03;58.11;101442.88;7386256;19;1513;-42
2024/03/08 07:36:16;;;;;;;;;;;;;;;19.33;57.59;101439.63;7388074;19;1547;-42
2024/03/08 07:38:46;;;;;;;;;;;;;;;19.64;56.72;101437.19;7387434;19;1477;-42
2024/03/08 07:41:18;;;;;;;;;;;;;;;19.91;56.00;101446.69;7389233;19;1002;-42
2024/03/08 07:43:46;;;;;;;;;;;;;;;19.99;55.76;101441.53;7387434;19;1850;-43
2024/03/08 07:46:14;;;;;;;;;;;;;;;19.98;55.52;101424.59;7387307;19;1554;-42
2024/03/08 07:48:44;;;;;;;;;;;;;;;20.07;55.53;101436.41;7387670;19;1962;-42
2024/03/08 07:51:13;;;;;;;;;;;;;;;20.05;55.54;101441.03;7388107;19;1179;-42
2024/03/08 07:53:41;;;;;;;;;;;;;;;20.06;55.39;101450.81;7385251;19;1634;-42
2024/03/08 07:56:12;;;;;;;;;;;;;;;20.01;55.53;101445.81;7387478;19;1148;-42
2024/03/08 07:58:43;;;;;;;;;;;;;;;20.07;55.47;101449.81;7386432;19;1413;-42
2024/03/08 08:01:18;;;;;;;;;;;;;;;19.84;55.07;101447.19;7385407;19;1452;-42
2024/03/08 08:03:48;;;;;;;;;;;;;;;19.52;54.20;101459.59;7387462;19;1855;-42
2024/03/08 08:06:17;;;;;;;;;;;;;;;19.14;51.43;101460.81;7388134;19;1175;-42
2024/03/08 08:08:46;;;;;;;;;;;;;;;18.71;50.88;101461.41;7374456;19;1109;-42
2024/03/08 08:11:15;;;;;;;;;;;;;;;18.36;50.83;101462.22;7394144;19;1353;-42
2024/03/08 08:13:46;;;;;;;;;;;;;;;17.64;47.50;101438.88;7395052;19;1524;-42
2024/03/08 08:16:15;;;;;;;;;;;;;;;17.33;48.19;101459.81;7395195;19;1386;-42
2024/03/08 08:18:46;;;;;;;;;;;;;;;17.78;49.03;101454.78;7392106;19;1398;-42
2024/03/08 08:21:14;;;;;;;;;;;;;;;18.50;48.19;101462.03;7393185;19;1248;-42
2024/03/08 08:23:42;;;;;;;;;;;;;;;18.56;48.53;101464.28;7392661;19;1863;-41
2024/03/08 08:26:11;;;;;;;;;;;;;;;18.22;48.71;101469.47;7393703;19;1534;-42
2024/03/08 08:28:40;;;;;;;;;;;;;;;18.08;48.34;101477.66;7394594;19;1094;-42
2024/03/08 08:31:11;;;;;;;;;;;;;;;18.31;48.89;101467.09;7392252;19;1528;-41
2024/03/08 08:33:40;;;;;;;;;;;;;;;18.76;47.86;101465.47;7394404;19;1487;-41
2024/03/08 08:36:09;;;;;;;;;;;;;;;19.06;47.58;101464.09;7392934;19;1156;-41
2024/03/08 08:38:38;;;;;;;;;;;;;;;19.41;47.48;101469.38;7393418;19;1144;-41
2024/03/08 08:41:06;;;;;;;;;;;;;;;19.61;47.16;101459.72;7393060;19;1836;-41
2024/03/08 08:43:36;;;;;;;;;;;;;;;19.67;47.63;101472.66;7392548;19;1858;-41
2024/03/08 08:46:04;;;;;;;;;;;;;;;19.79;47.73;101478.91;7393417;19;1143;-41
2024/03/08 08:48:35;;;;;;;;;;;;;;;19.83;48.25;101466.94;7393531;19;1164;-41
2024/03/08 08:51:03;;;;;;;;;;;;;;;19.89;48.75;101475.50;7392522;19;1554;-41
2024/03/08 08:53:35;;;;;;;;;;;;;;;19.96;49.04;101468.66;7393731;19;1674;-42
2024/03/08 08:56:03;;;;;;;;;;;;;;;19.96;49.49;101471.34;7393471;19;1623;-42
2024/03/08 08:58:31;;;;;;;;;;;;;;;19.77;49.75;101474.66;7392877;19;1362;-42
2024/03/08 09:01:01;;;;;;;;;;;;;;;19.35;50.87;101474.38;7393282;19;1582;-42
2024/03/08 09:03:29;;;;;;;;;;;;;;;18.99;51.23;101471.75;7392522;19;1862;-42
2024/03/08 09:06:00;;;;;;;;;;;;;;;18.66;51.19;101470.66;7392924;19;1331;-42
2024/03/08 09:08:29;;;;;;;;;;;;;;;18.42;51.51;101467.13;7392181;19;1246;-42
2024/03/08 09:10:59;;;;;;;;;;;;;;;18.69;50.63;101467.72;7379700;19;1282;-42
2024/03/08 09:13:27;;;;;;;;;;;;;;;19.02;50.24;101482.25;7392708;19;1540;-42
2024/03/08 09:15:56;;;;;;;;;;;;;;;19.15;49.98;101481.28;7393392;19;1192;-42
2024/03/08 09:18:25;;;;;;;;;;;;;;;19.30;49.67;101465.81;7392689;19;1624;-43
2024/03/08 09:20:53;;;;;;;;;;;;;;;19.32;49.93;101475.47;7390880;19;1558;-42
2024/03/08 09:23:25;;;;;;;;;;;;;;;19.39;49.57;101484.72;7391680;19;1878;-42
2024/03/08 09:25:53;;;;;;;;;;;;;;;19.39;49.81;101482.03;7391377;19;1132;-42
2024/03/08 09:28:22;;;;;;;;;;;;;;;19.34;49.94;101484.25;7390512;19;1857;-43
2024/03/08 09:30:50;;;;;;;;;;;;;;;19.30;50.22;101480.09;7392206;19;1721;-42
2024/03/08 09:33:19;;;;;;;;;;;;;;;19.32;50.07;101469.22;7391190;19;1459;-42
2024/03/08 09:35:48;;;;;;;;;;;;;;;19.34;49.83;101461.91;7392254;19;1510;-42
2024/03/08 09:38:16;;;;;;;;;;;;;;;19.44;50.01;101479.03;7391984;19;1077;-42
2024/03/08 09:40:47;;;;;;;;;;;;;;;19.48;49.99;101481.34;7390422;19;1370;-42
2024/03/08 09:43:16;;;;;;;;;;;;;;;19.55;50.29;101472.78;7390082;19;1849;-42
2024/03/08 09:45:44;;;;;;;;;;;;;;;19.52;50.29;101481.06;7391319;19;1365;-42
2024/03/08 09:48:14;;;;;;;;;;;;;;;19.56;50.44;101471.84;7391215;19;1157;-42
2024/03/08 09:50:43;;;;;;;;;;;;;;;19.60;50.65;101486.72;7391255;19;1401;-42
2024/03/08 09:53:11;;;;;;;;;;;;;;;19.65;50.77;101468.41;7393287;19;1366;-43
2024/03/08 09:55:42;;;;;;;;;;;;;;;19.63;51.07;101484.59;7392285;19;1315;-42
2024/03/08 09:58:36;;;;;;;;;;;;;;;19.46;51.00;101479.75;7390152;19;1452;-42
2024/03/08 10:01:04;;;;;;;;;;;;;;;19.44;51.31;101485.22;7390776;19;1425;-46
2024/03/08 10:03:32;;;;;;;;;;;;;;;19.41;51.53;101490.81;7390758;19;1873;-42
2024/03/08 10:06:02;;;;;;;;;;;;;;;19.36;51.92;101476.06;7391618;19;1151;-46
2024/03/08 10:08:31;;;;;;;;;;;;;;;19.38;51.90;101477.66;7392491;19;1282;-42
2024/03/08 10:11:01;;;;;;;;;;;;;;;19.38;51.99;101472.31;7378210;19;1109;-42
2024/03/08 10:13:32;;;;;;;;;;;;;;;19.41;52.08;101469.38;7392757;19;1643;-42
2024/03/08 10:16:00;;;;;;;;;;;;;;;19.42;52.36;101484.50;7392670;19;1625;-43
2024/03/08 10:18:29;;;;;;;;;;;;;;;19.63;51.74;101491.81;7391767;19;1210;-41
2024/03/08 10:21:07;;;;;;;;;;;;;;;19.58;52.11;101483.28;7391693;19;1373;-41
2024/03/08 10:23:36;;;;;;;;;;;;;;;19.65;52.45;101481.81;7391412;19;1843;-42
2024/03/08 10:26:14;;;;;;;;;;;;;;;19.74;52.49;101486.50;7391638;19;1491;-41
2024/03/08 10:28:45;;;;;;;;;;;;;;;19.64;53.47;101493.53;7390642;19;1477;-41
2024/03/08 10:31:14;;;;;;;;;;;;;;;19.38;52.85;101501.81;7389995;19;1751;-41
2024/03/08 10:33:44;;;;;;;;;;;;;;;19.25;52.55;101490.31;7390005;19;1533;-41
2024/03/08 10:36:12;;;;;;;;;;;;;;;19.42;53.02;101495.22;7390776;19;1493;-41
2024/03/08 10:38:42;;;;;;;;;;;;;;;19.53;53.08;101482.78;7389849;19;1097;-41
2024/03/08 10:41:11;;;;;;;;;;;;;;;19.71;52.78;101510.00;7390264;19;1078;-41
2024/03/08 10:43:55;;;;;;;;;;;;;;;19.76;52.98;101481.84;7386931;19;2098;-41
2024/03/08 10:46:26;;;;;;;;;;;;;;;19.63;53.27;101489.13;7387759;19;1781;-41
2024/03/08 10:48:58;;;;;;;;;;;;;;;19.62;53.74;101482.06;7389589;19;1422;-41
2024/03/08 10:51:28;;;;;;;;;;;;;;;19.51;54.02;101482.06;7389352;19;1649;-41
2024/03/08 10:53:58;;;;;;;;;;;;;;;19.48;54.18;101472.44;7389435;19;1524;-41
2024/03/08 10:56:27;;;;;;;;;;;;;;;19.52;54.13;101462.28;7389201;19;1154;-41
2024/03/08 10:58:58;;;;;;;;;;;;;;;19.58;53.84;101480.63;7389166;19;1438;-41
2024/03/08 11:01:29;;;;;;;;;;;;;;;19.61;54.10;101464.25;7389508;19;1148;-41
2024/03/08 11:03:58;;;;;;;;;;;;;;;19.74;54.04;101473.06;7387834;19;1849;-41
2024/03/08 11:06:34;;;;;;;;;;;;;;;19.70;54.68;101468.03;7388581;19;1402;-41
2024/03/08 11:09:03;;;;;;;;;;;;;;;19.71;54.71;101461.69;7387895;19;1414;-50
2024/03/08 11:11:35;;;;;;;;;;;;;;;19.75;54.84;101464.03;7376489;19;1081;-44
2024/03/08 11:14:06;;;;;;;;;;;;;;;19.73;54.96;101460.63;7388856;19;1113;-42
2024/03/08 11:16:40;;;;;;;;;;;;;;;19.73;55.21;101452.56;7388010;19;1509;-43
2024/03/08 11:19:10;;;;;;;;;;;;;;;19.76;55.06;101452.31;7387108;19;1218;-42
2024/03/08 11:21:39;;;;;;;;;;;;;;;19.63;55.24;101451.56;7389769;19;1437;-42
2024/03/08 11:24:11;;;;;;;;;;;;;;;19.41;55.67;101452.44;7387982;19;1847;-42
2024/03/08 11:26:40;;;;;;;;;;;;;;;19.19;56.13;101453.25;7388504;19;1188;-42
2024/03/08 11:29:35;;;;;;;;;;;;;;;18.96;56.81;101452.38;7387149;19;1668;-42
2024/03/08 11:32:09;;;;;;;;;;;;;;;18.88;56.91;101451.16;7384841;19;1816;-41
2024/03/08 11:34:38;;;;;;;;;;;;;;;18.97;57.22;101460.28;7387686;19;1188;-41
2024/03/08 11:37:09;;;;;;;;;;;;;;;19.47;55.96;101444.72;7387667;19;1501;-42
2024/03/08 11:39:38;;;;;;;;;;;;;;;19.53;55.86;101440.72;7387640;19;1483;-41
2024/03/08 11:42:07;;;;;;;;;;;;;;;19.64;55.61;101445.25;7387584;19;1579;-41
2024/03/08 11:44:36;;;;;;;;;;;;;;;19.67;55.53;101453.03;7386279;19;1847;-42
2024/03/08 11:47:10;;;;;;;;;;;;;;;19.70;55.60;101449.25;7387648;19;1425;-43
2024/03/08 11:49:44;;;;;;;;;;;;;;;19.70;55.31;101451.94;7387423;19;1089;-42
2024/03/08 11:52:15;;;;;;;;;;;;;;;19.70;55.24;101447.44;7388152;19;1523;-42
2024/03/08 11:54:43;;;;;;;;;;;;;;;19.76;55.16;101446.13;7385915;19;2420;-42
2024/03/08 11:57:12;;;;;;;;;;;;;;;19.73;55.36;101436.47;7387466;19;1808;-42
2024/03/08 11:59:41;;;;;;;;;;;;;;;19.70;55.22;101442.06;7387630;19;1603;-42
2024/03/08 12:02:11;;;;;;;;;;;;;;;19.74;55.17;101451.59;7386885;19;1420;-42
2024/03/08 12:04:42;;;;;;;;;;;;;;;19.70;55.37;101425.13;7385512;19;1875;-41
2024/03/08 12:07:14;;;;;;;;;;;;;;;19.72;55.26;101433.94;7387946;19;1578;-41
2024/03/08 12:09:46;;;;;;;;;;;;;;;19.68;55.33;101433.28;7372338;19;1551;-41
2024/03/08 12:12:15;;;;;;;;;;;;;;;19.72;55.05;101442.81;7387344;19;1464;-41
2024/03/08 12:14:46;;;;;;;;;;;;;;;19.77;55.14;101437.06;7386237;19;1429;-41
2024/03/08 12:17:14;;;;;;;;;;;;;;;19.76;55.14;101425.50;7387330;19;1148;-41
2024/03/08 12:19:48;;;;;;;;;;;;;;;19.80;54.94;101431.47;7387837;19;1014;-42
2024/03/08 12:22:17;;;;;;;;;;;;;;;19.42;55.10;101440.75;7387564;19;1100;-41
2024/03/08 12:24:47;;;;;;;;;;;;;;;18.93;52.18;101436.53;7385826;19;1874;-42
2024/03/08 12:27:21;;;;;;;;;;;;;;;18.81;54.50;101436.50;7383120;19;1190;-42
2024/03/08 12:29:51;;;;;;;;;;;;;;;18.81;55.27;101439.19;7386760;19;1509;-42
2024/03/08 12:32:19;;;;;;;;;;;;;;;18.84;54.69;101438.06;7386194;19;1191;-41
2024/03/08 12:34:54;;;;;;;;;;;;;;;19.16;54.29;101442.75;7387706;19;1650;-41
2024/03/08 12:37:23;;;;;;;;;;;;;;;19.41;53.86;101430.97;7386116;19;1211;-42
2024/03/08 12:39:51;;;;;;;;;;;;;;;19.37;54.08;101437.56;7384818;19;1203;-42
2024/03/08 12:42:19;;;;;;;;;;;;;;;18.96;53.86;101431.78;7386441;19;1181;-42
2024/03/08 12:44:48;;;;;;;;;;;;;;;19.02;53.63;101423.28;7384676;19;1848;-42
2024/03/08 12:47:16;;;;;;;;;;;;;;;19.25;53.55;101423.28;7387768;19;2003;-42
2024/03/08 12:49:45;;;;;;;;;;;;;;;19.41;53.49;101421.09;7386202;19;1789;-42
2024/03/08 12:52:18;;;;;;;;;;;;;;;19.27;54.11;101418.66;7386114;19;1497;-43
2024/03/08 12:54:47;;;;;;;;;;;;;;;19.03;54.62;101419.59;7385867;19;1562;-42
2024/03/08 12:57:16;;;;;;;;;;;;;;;18.95;54.72;101402.44;7393457;19;1274;-42
2024/03/08 12:59:44;;;;;;;;;;;;;;;19.09;54.59;101402.19;7394366;19;1179;-42
2024/03/08 13:02:13;;;;;;;;;;;;;;;19.33;54.05;101412.81;7393728;19;1936;-43
2024/03/08 13:04:42;;;;;;;;;;;;;;;19.70;53.45;101398.28;7393051;19;1859;-42